Time;durP1;ratioP1;P1;durP2;ratioP2;P2;SDS_P1;SDS_P2;PMS_P1;PMS_P2;Temp;Humidity;BMP_temperature;BMP_pressure;BME280_temperature;BME280_humidity;BME280_pressure;Samples;Min_cycle;Max_cycle;Signal;HPM_P1;HPM_P2
2023/04/15 00:02:38;;;;;;;;;;;;;;;;;;137594;1273;22313;-82
2023/04/15 00:05:39;;;;;;;;;;;;;;;;;;137694;1273;22401;-81
2023/04/15 00:08:43;;;;;;;;;;;;;;;;;;137586;1273;22164;-80
2023/04/15 00:11:44;;;;;;;;;;;;;;;;;;137622;1273;22338;-80
2023/04/15 00:14:45;;;;;;;;;;;;;;;;;;137670;1273;22196;-80
2023/04/15 00:17:49;;;;;;;;;;;;;;;;;;137627;1273;22292;-80
2023/04/15 00:20:51;;;;;;;;;;;;;;;;;;137639;1273;22215;-80
2023/04/15 00:23:52;;;;;;;;;;;;;;;;;;137646;1273;22303;-80
2023/04/15 00:26:53;;;;;;;;;;;;;;;;;;137623;1273;22735;-80
2023/04/15 00:29:55;;;;;;;;;;;;;;;;;;137616;1273;22285;-80
2023/04/15 00:32:56;;;;;;;;;;;;;;;;;;137622;1270;22253;-80
2023/04/15 00:35:57;;;;;;;;;;;;;;;;;;137638;1273;22417;-80
2023/04/15 00:38:58;;;;;;;;;;;;;;;;;;137607;1273;22265;-81
2023/04/15 00:41:59;;;;;;;;;;;;;;;;;;137621;1273;22181;-79
2023/04/15 00:45:01;;;;;;;;;;;;;;;;;;137617;1273;22356;-80
2023/04/15 00:48:02;;;;;;;;;;;;;;;;;;137596;1273;22384;-80
2023/04/15 00:51:03;;;;;;;;;;;;;;;;;;137703;1273;22275;-80
2023/04/15 00:54:04;;;;;;;;;;;;;;;;;;137628;1273;22266;-80
2023/04/15 00:57:05;;;;;;;;;;;;;;;;;;137614;1273;22258;-80
2023/04/15 01:00:08;;;;;;;;;;;;;;;;;;137655;1273;22290;-79
2023/04/15 01:03:10;;;;;;;;;;;;;;;;;;137616;1273;22272;-79
2023/04/15 01:06:11;;;;;;;;;;;;;;;;;;137664;1273;22364;-81
2023/04/15 01:09:12;;;;;;;;;;;;;;;;;;137639;1273;22283;-79
2023/04/15 01:12:14;;;;;;;;;;;;;;;;;;137608;1273;22271;-79
2023/04/15 01:15:15;;;;;;;;;;;;;;;;;;137652;1273;22199;-80
2023/04/15 01:18:16;;;;;;;;;;;;;;;;;;137637;1270;22211;-80
2023/04/15 01:21:18;;;;;;;;;;;;;;;;;;137607;1273;22283;-79
2023/04/15 01:24:20;;;;;;;;;;;;;;;;;;137623;1261;22188;-79
2023/04/15 01:27:21;;;;;;;;;;;;;;;;;;137632;1273;22330;-80
2023/04/15 01:30:22;;;;;;;;;;;;;;;;;;137719;1273;22177;-80
2023/04/15 01:33:23;;;;;;;;;;;;;;;;;;137659;1273;22690;-80
2023/04/15 01:36:27;;;;;;;;;;;;;;;;;;137552;1273;22361;-80
2023/04/15 01:39:28;;;;;;;;;;;;;;;;;;137644;1273;22196;-79
2023/04/15 01:42:29;;;;;;;;;;;;;;;;;;137644;1273;22320;-79
2023/04/15 01:45:30;;;;;;;;;;;;;;;;;;137603;1273;22676;-79
2023/04/15 01:48:32;;;;;;;;;;;;;;;;;;137623;1273;22313;-80
2023/04/15 01:51:33;;;;;;;;;;;;;;;;;;137592;1273;22277;-79
2023/04/15 01:54:34;;;;;;;;;;;;;;;;;;137617;1273;22251;-79
2023/04/15 01:57:35;;;;;;;;;;;;;;;;;;137608;1273;22171;-80
2023/04/15 02:00:36;;;;;;;;;;;;;;;;;;137589;1273;22712;-80
2023/04/15 02:03:38;;;;;;;;;;;;;;;;;;137601;1273;22264;-79
2023/04/15 02:06:39;;;;;;;;;;;;;;;;;;137564;1273;22881;-79
2023/04/15 02:09:40;;;;;;;;;;;;;;;;;;137582;1273;22253;-80
2023/04/15 02:12:43;;;;;;;;;;;;;;;;;;137570;1273;22287;-80
2023/04/15 02:15:44;;;;;;;;;;;;;;;;;;137574;1273;22200;-79
2023/04/15 02:18:45;;;;;;;;;;;;;;;;;;137574;1273;22185;-80
2023/04/15 02:21:46;;;;;;;;;;;;;;;;;;137607;1273;22252;-80
2023/04/15 02:24:47;;;;;;;;;;;;;;;;;;137633;1273;22278;-80
2023/04/15 02:27:48;;;;;;;;;;;;;;;;;;137604;1272;22358;-80
2023/04/15 02:30:51;;;;;;;;;;;;;;;;;;137605;1273;22212;-79
2023/04/15 02:33:52;;;;;;;;;;;;;;;;;;137589;1273;22176;-80
2023/04/15 02:36:56;;;;;;;;;;;;;;;;;;137596;1273;22370;-79
2023/04/15 02:39:57;;;;;;;;;;;;;;;;;;137596;1273;22661;-80
2023/04/15 02:42:59;;;;;;;;;;;;;;;;;;137602;1273;22231;-80
2023/04/15 02:46:00;;;;;;;;;;;;;;;;;;137602;1273;22270;-80
2023/04/15 02:49:02;;;;;;;;;;;;;;;;;;137557;1273;22219;-80
2023/04/15 02:52:03;;;;;;;;;;;;;;;;;;137501;1273;22422;-80
2023/04/15 02:55:07;;;;;;;;;;;;;;;;;;137616;1273;22245;-80
2023/04/15 02:58:08;;;;;;;;;;;;;;;;;;137591;1273;22262;-79
2023/04/15 03:01:13;;;;;;;;;;;;;;;;;;137595;1273;22217;-79
2023/04/15 03:04:14;;;;;;;;;;;;;;;;;;137588;1273;22684;-79
2023/04/15 03:07:15;;;;;;;;;;;;;;;;;;137549;1273;22355;-80
2023/04/15 03:10:21;;;;;;;;;;;;;;;;;;137626;1273;22309;-80
2023/04/15 03:13:23;;;;;;;;;;;;;;;;;;137621;1273;22266;-79
2023/04/15 03:16:24;;;;;;;;;;;;;;;;;;137600;1273;22174;-79
2023/04/15 03:19:25;;;;;;;;;;;;;;;;;;137593;1273;22264;-79
2023/04/15 03:22:26;;;;;;;;;;;;;;;;;;137624;1273;22285;-79
2023/04/15 03:25:27;;;;;;;;;;;;;;;;;;137546;1273;22256;-79
2023/04/15 03:28:28;;;;;;;;;;;;;;;;;;137558;1273;22318;-79
2023/04/15 03:31:30;;;;;;;;;;;;;;;;;;137615;1273;22221;-79
2023/04/15 03:34:31;;;;;;;;;;;;;;;;;;137568;1273;22268;-79
2023/04/15 03:37:32;;;;;;;;;;;;;;;;;;137610;1273;22906;-80
2023/04/15 03:40:32;;;;;;;;;;;;;;;;;;137631;1273;22273;-79
2023/04/15 03:43:34;;;;;;;;;;;;;;;;;;137628;1273;22270;-80
2023/04/15 03:46:35;;;;;;;;;;;;;;;;;;137569;1273;22271;-79
2023/04/15 03:49:36;;;;;;;;;;;;;;;;;;137552;1273;22201;-79
2023/04/15 03:52:37;;;;;;;;;;;;;;;;;;137548;1273;22642;-79
2023/04/15 03:55:38;;;;;;;;;;;;;;;;;;137550;1273;22633;-79
2023/04/15 03:58:39;;;;;;;;;;;;;;;;;;137551;1273;22680;-79
2023/04/15 04:01:40;;;;;;;;;;;;;;;;;;137525;1273;22950;-79
2023/04/15 04:04:42;;;;;;;;;;;;;;;;;;137537;1273;22207;-80
2023/04/15 04:07:43;;;;;;;;;;;;;;;;;;137572;1273;22386;-79
2023/04/15 04:10:44;;;;;;;;;;;;;;;;;;137582;1273;22699;-80
2023/04/15 04:13:45;;;;;;;;;;;;;;;;;;137545;1273;22659;-80
2023/04/15 04:16:46;;;;;;;;;;;;;;;;;;137588;1273;22283;-80
2023/04/15 04:19:47;;;;;;;;;;;;;;;;;;137579;1273;22760;-80
2023/04/15 04:22:48;;;;;;;;;;;;;;;;;;137551;1273;22613;-78
2023/04/15 04:25:49;;;;;;;;;;;;;;;;;;137522;1273;22180;-80
2023/04/15 04:28:51;;;;;;;;;;;;;;;;;;137529;1273;22860;-79
2023/04/15 04:31:52;;;;;;;;;;;;;;;;;;137499;1273;22266;-79
2023/04/15 04:34:53;;;;;;;;;;;;;;;;;;137515;1273;22275;-79
2023/04/15 04:37:54;;;;;;;;;;;;;;;;;;137523;1273;23241;-79
2023/04/15 04:40:55;;;;;;;;;;;;;;;;;;137517;1273;22184;-80
2023/04/15 04:43:56;;;;;;;;;;;;;;;;;;137558;1273;22272;-79
2023/04/15 04:46:57;;;;;;;;;;;;;;;;;;137571;1273;22181;-80
2023/04/15 04:49:58;;;;;;;;;;;;;;;;;;137581;1267;22217;-78
2023/04/15 04:52:59;;;;;;;;;;;;;;;;;;137599;1273;22270;-80
2023/04/15 04:56:00;;;;;;;;;;;;;;;;;;137643;1273;22265;-80
2023/04/15 04:59:01;;;;;;;;;;;;;;;;;;137584;1273;22883;-80
2023/04/15 05:02:02;;;;;;;;;;;;;;;;;;137571;1273;22271;-79
2023/04/15 05:05:03;;;;;;;;;;;;;;;;;;137580;1273;22354;-80
2023/04/15 05:08:04;;;;;;;;;;;;;;;;;;137556;1273;22403;-80
2023/04/15 05:11:06;;;;;;;;;;;;;;;;;;137591;1271;22293;-78
2023/04/15 05:14:07;;;;;;;;;;;;;;;;;;137543;1273;22251;-81
2023/04/15 05:17:08;;;;;;;;;;;;;;;;;;137553;1273;22270;-80
2023/04/15 05:20:09;;;;;;;;;;;;;;;;;;137550;1273;22365;-80
2023/04/15 05:23:10;;;;;;;;;;;;;;;;;;137637;1273;22391;-80
2023/04/15 05:26:11;;;;;;;;;;;;;;;;;;137532;1273;22193;-80
2023/04/15 05:29:12;;;;;;;;;;;;;;;;;;137592;1273;22303;-79
2023/04/15 05:32:13;;;;;;;;;;;;;;;;;;137604;1273;22621;-80
2023/04/15 05:35:15;;;;;;;;;;;;;;;;;;137625;1273;22212;-80
2023/04/15 05:38:16;;;;;;;;;;;;;;;;;;137612;1273;22427;-80
2023/04/15 05:41:17;;;;;;;;;;;;;;;;;;137581;1273;22179;-80
2023/04/15 05:44:18;;;;;;;;;;;;;;;;;;137630;1273;22236;-80
2023/04/15 05:47:19;;;;;;;;;;;;;;;;;;137608;1273;22238;-80
2023/04/15 05:50:20;;;;;;;;;;;;;;;;;;137628;1273;22257;-80
2023/04/15 05:53:22;;;;;;;;;;;;;;;;;;137663;1273;22276;-80
2023/04/15 05:56:25;;;;;;;;;;;;;;;;;;137612;1273;22264;-79
2023/04/15 05:59:27;;;;;;;;;;;;;;;;;;137617;1273;22358;-79
2023/04/15 06:02:28;;;;;;;;;;;;;;;;;;137586;1273;22249;-80
2023/04/15 06:05:29;;;;;;;;;;;;;;;;;;137601;1273;22734;-79
2023/04/15 06:08:30;;;;;;;;;;;;;;;;;;137552;1273;22573;-79
2023/04/15 06:11:32;;;;;;;;;;;;;;;;;;137552;1273;22227;-80
2023/04/15 06:14:33;;;;;;;;;;;;;;;;;;137568;1273;22262;-79
2023/04/15 06:17:34;;;;;;;;;;;;;;;;;;137551;1273;22308;-80
2023/04/15 06:20:35;;;;;;;;;;;;;;;;;;137525;1273;22198;-80
2023/04/15 06:23:36;;;;;;;;;;;;;;;;;;137527;1273;22297;-81
2023/04/15 06:26:37;;;;;;;;;;;;;;;;;;137521;1273;22290;-80
2023/04/15 06:29:41;;;;;;;;;;;;;;;;;;137459;1273;22852;-80
2023/04/15 06:32:42;;;;;;;;;;;;;;;;;;137540;1273;22195;-80
2023/04/15 06:35:43;;;;;;;;;;;;;;;;;;137578;1273;22415;-79
2023/04/15 06:38:44;;;;;;;;;;;;;;;;;;137493;1273;22283;-79
2023/04/15 06:41:45;;;;;;;;;;;;;;;;;;137557;1273;22296;-81
2023/04/15 06:44:46;;;;;;;;;;;;;;;;;;137535;1267;22204;-79
2023/04/15 06:47:47;;;;;;;;;;;;;;;;;;137515;1273;22173;-79
2023/04/15 06:50:48;;;;;;;;;;;;;;;;;;137573;1273;22714;-80
2023/04/15 06:53:49;;;;;;;;;;;;;;;;;;137555;1273;22196;-80
2023/04/15 06:56:50;;;;;;;;;;;;;;;;;;137555;1259;22173;-80
2023/04/15 06:59:53;;;;;;;;;;;;;;;;;;137515;1272;22297;-80
2023/04/15 07:02:54;;;;;;;;;;;;;;;;;;137570;1273;22791;-81
2023/04/15 07:05:55;;;;;;;;;;;;;;;;;;137605;1262;22830;-80
2023/04/15 07:08:56;;;;;;;;;;;;;;;;;;137619;1273;22288;-80
2023/04/15 07:12:00;;;;;;;;;;;;;;;;;;137440;1273;182560;-80
2023/04/15 07:15:01;;;;;;;;;;;;;;;;;;137580;1273;22274;-80
2023/04/15 07:18:02;;;;;;;;;;;;;;;;;;137556;1273;22280;-80
2023/04/15 07:21:03;;;;;;;;;;;;;;;;;;137618;1273;22211;-80
2023/04/15 07:24:04;;;;;;;;;;;;;;;;;;137543;1273;22778;-80
2023/04/15 07:27:05;;;;;;;;;;;;;;;;;;137595;1273;22259;-80
2023/04/15 07:30:06;;;;;;;;;;;;;;;;;;137558;1273;22414;-79
2023/04/15 07:33:07;;;;;;;;;;;;;;;;;;137544;1273;22746;-80
2023/04/15 07:36:09;;;;;;;;;;;;;;;;;;137555;1273;22811;-80
2023/04/15 07:39:10;;;;;;;;;;;;;;;;;;137594;1273;22246;-80
2023/04/15 07:42:11;;;;;;;;;;;;;;;;;;137632;1272;22422;-80
2023/04/15 07:45:13;;;;;;;;;;;;;;;;;;137594;1273;22191;-80
2023/04/15 07:48:14;;;;;;;;;;;;;;;;;;137585;1273;22292;-80
2023/04/15 07:51:15;;;;;;;;;;;;;;;;;;137612;1273;22190;-80
2023/04/15 07:54:16;;;;;;;;;;;;;;;;;;137557;1273;22298;-80
2023/04/15 07:57:17;;;;;;;;;;;;;;;;;;137604;1273;22847;-80
2023/04/15 08:00:19;;;;;;;;;;;;;;;;;;137566;1273;22270;-80
2023/04/15 08:03:20;;;;;;;;;;;;;;;;;;137635;1273;22449;-80
2023/04/15 08:06:21;;;;;;;;;;;;;;;;;;137518;1273;22385;-80
2023/04/15 08:09:22;;;;;;;;;;;;;;;;;;137580;1272;22816;-80
2023/04/15 08:12:23;;;;;;;;;;;;;;;;;;137645;1273;22197;-80
2023/04/15 08:15:24;;;;;;;;;;;;;;;;;;137590;1273;22164;-80
2023/04/15 08:18:25;;;;;;;;;;;;;;;;;;137550;1270;22196;-79
2023/04/15 08:21:29;;;;;;;;;;;;;;;;;;137528;1273;22654;-80
2023/04/15 08:24:30;;;;;;;;;;;;;;;;;;137566;1272;22556;-80
2023/04/15 08:27:31;;;;;;;;;;;;;;;;;;137556;1273;22267;-80
2023/04/15 08:30:33;;;;;;;;;;;;;;;;;;137613;1273;22326;-80
2023/04/15 08:33:34;;;;;;;;;;;;;;;;;;137645;1268;22220;-80
2023/04/15 08:36:37;;;;;;;;;;;;;;;;;;137652;1273;22365;-80
2023/04/15 08:39:38;;;;;;;;;;;;;;;;;;137637;1273;22713;-80
2023/04/15 08:42:39;;;;;;;;;;;;;;;;;;137604;1273;22208;-80
2023/04/15 08:45:40;;;;;;;;;;;;;;;;;;137620;1273;22258;-80
2023/04/15 08:48:41;;;;;;;;;;;;;;;;;;137665;1273;22742;-80
2023/04/15 08:51:42;;;;;;;;;;;;;;;;;;137648;1273;22255;-80
2023/04/15 08:54:44;;;;;;;;;;;;;;;;;;137612;1269;22196;-81
2023/04/15 08:57:45;;;;;;;;;;;;;;;;;;137632;1273;22169;-81
2023/04/15 09:00:47;;;;;;;;;;;;;;;;;;137685;1273;22670;-80
2023/04/15 09:03:48;;;;;;;;;;;;;;;;;;137673;1273;22219;-81
2023/04/15 09:06:51;;;;;;;;;;;;;;;;;;137675;1273;22398;-82
2023/04/15 09:09:52;;;;;;;;;;;;;;;;;;137679;1273;22263;-80
2023/04/15 09:12:53;;;;;;;;;;;;;;;;;;137593;1273;22200;-80
2023/04/15 09:15:54;;;;;;;;;;;;;;;;;;137646;1273;22268;-81
2023/04/15 09:18:55;;;;;;;;;;;;;;;;;;137678;1273;22196;-80
2023/04/15 09:21:56;;;;;;;;;;;;;;;;;;137654;1273;22580;-81
2023/04/15 09:24:58;;;;;;;;;;;;;;;;;;137743;1273;22349;-81
2023/04/15 09:27:59;;;;;;;;;;;;;;;;;;137674;1273;22317;-82
2023/04/15 09:31:00;;;;;;;;;;;;;;;;;;137735;1273;22236;-81
2023/04/15 09:34:01;;;;;;;;;;;;;;;;;;137724;1272;22280;-81
2023/04/15 09:37:02;;;;;;;;;;;;;;;;;;137664;1273;22390;-82
2023/04/15 09:40:04;;;;;;;;;;;;;;;;;;137576;1273;22282;-81
2023/04/15 09:43:05;;;;;;;;;;;;;;;;;;137572;1273;22275;-81
2023/04/15 09:46:06;;;;;;;;;;;;;;;;;;137633;1273;22251;-81
2023/04/15 09:49:07;;;;;;;;;;;;;;;;;;137630;1263;22336;-81
2023/04/15 09:52:08;;;;;;;;;;;;;;;;;;137615;1273;22279;-81
2023/04/15 09:55:09;;;;;;;;;;;;;;;;;;137594;1268;22316;-80
2023/04/15 09:58:10;;;;;;;;;;;;;;;;;;137589;1273;22252;-80
2023/04/15 10:01:11;;;;;;;;;;;;;;;;;;137575;1272;22284;-80
2023/04/15 10:04:12;;;;;;;;;;;;;;;;;;137548;1273;22891;-80
2023/04/15 10:07:14;;;;;;;;;;;;;;;;;;137557;1273;22413;-80
2023/04/15 10:10:15;;;;;;;;;;;;;;;;;;137563;1273;22274;-80
2023/04/15 10:13:16;;;;;;;;;;;;;;;;;;137534;1273;22321;-80
2023/04/15 10:16:19;;;;;;;;;;;;;;;;;;137593;1273;22345;-81
2023/04/15 10:19:20;;;;;;;;;;;;;;;;;;137551;1273;22282;-79
2023/04/15 10:22:21;;;;;;;;;;;;;;;;;;137591;1273;22188;-80
2023/04/15 10:25:22;;;;;;;;;;;;;;;;;;137628;1273;22284;-80
2023/04/15 10:28:23;;;;;;;;;;;;;;;;;;137621;1273;22627;-81
2023/04/15 10:31:24;;;;;;;;;;;;;;;;;;137571;1273;22688;-81
2023/04/15 10:34:26;;;;;;;;;;;;;;;;;;137557;1273;22911;-82
2023/04/15 10:37:27;;;;;;;;;;;;;;;;;;137556;1273;22357;-80
2023/04/15 10:40:28;;;;;;;;;;;;;;;;;;137563;1273;22278;-80
2023/04/15 10:43:29;;;;;;;;;;;;;;;;;;137581;1273;22288;-81
2023/04/15 10:46:30;;;;;;;;;;;;;;;;;;137588;1273;22212;-80
2023/04/15 10:49:31;;;;;;;;;;;;;;;;;;137618;1273;22312;-80
2023/04/15 10:52:32;;;;;;;;;;;;;;;;;;137613;1273;22216;-80
2023/04/15 10:55:33;;;;;;;;;;;;;;;;;;137566;1272;22292;-80
2023/04/15 10:58:34;;;;;;;;;;;;;;;;;;137584;1272;22340;-80
2023/04/15 11:01:35;;;;;;;;;;;;;;;;;;137591;1273;22301;-80
2023/04/15 11:04:36;;;;;;;;;;;;;;;;;;137559;1273;22168;-80
2023/04/15 11:07:37;;;;;;;;;;;;;;;;;;137606;1268;22402;-81
2023/04/15 11:10:38;;;;;;;;;;;;;;;;;;137603;1273;22944;-80
2023/04/15 11:13:39;;;;;;;;;;;;;;;;;;137644;1273;22160;-80
2023/04/15 11:16:41;;;;;;;;;;;;;;;;;;137665;1273;22150;-80
2023/04/15 11:19:42;;;;;;;;;;;;;;;;;;137634;1273;22750;-79
2023/04/15 11:22:43;;;;;;;;;;;;;;;;;;137637;1273;22242;-79
2023/04/15 11:25:44;;;;;;;;;;;;;;;;;;137641;1273;22193;-80
2023/04/15 11:28:46;;;;;;;;;;;;;;;;;;137618;1272;22416;-80
2023/04/15 11:31:48;;;;;;;;;;;;;;;;;;137710;1273;22195;-81
2023/04/15 11:34:49;;;;;;;;;;;;;;;;;;137697;1273;22194;-82
2023/04/15 11:37:50;;;;;;;;;;;;;;;;;;137632;1273;22383;-80
2023/04/15 11:40:51;;;;;;;;;;;;;;;;;;137591;1273;22194;-81
2023/04/15 11:43:52;;;;;;;;;;;;;;;;;;137597;1273;22278;-81
2023/04/15 11:46:53;;;;;;;;;;;;;;;;;;137628;1273;22282;-82
2023/04/15 11:49:54;;;;;;;;;;;;;;;;;;137656;1273;22195;-81
2023/04/15 11:52:55;;;;;;;;;;;;;;;;;;137622;1273;22273;-81
2023/04/15 11:55:56;;;;;;;;;;;;;;;;;;137613;1273;22252;-81
2023/04/15 11:58:58;;;;;;;;;;;;;;;;;;137606;1273;22300;-80
2023/04/15 12:01:59;;;;;;;;;;;;;;;;;;137638;1273;22287;-80
2023/04/15 12:05:00;;;;;;;;;;;;;;;;;;137605;1273;22325;-80
2023/04/15 12:08:01;;;;;;;;;;;;;;;;;;137614;1273;22407;-80
2023/04/15 12:11:02;;;;;;;;;;;;;;;;;;137617;1273;22271;-80
2023/04/15 12:14:03;;;;;;;;;;;;;;;;;;137648;1273;22273;-81
2023/04/15 12:17:04;;;;;;;;;;;;;;;;;;137695;1273;22846;-81
2023/04/15 12:20:06;;;;;;;;;;;;;;;;;;137713;1273;22298;-80
2023/04/15 12:23:07;;;;;;;;;;;;;;;;;;137681;1273;22728;-80
2023/04/15 12:26:08;;;;;;;;;;;;;;;;;;137627;1273;22277;-80
2023/04/15 12:29:09;;;;;;;;;;;;;;;;;;137633;1273;22264;-81
2023/04/15 12:32:10;;;;;;;;;;;;;;;;;;137681;1273;22244;-80
2023/04/15 12:35:11;;;;;;;;;;;;;;;;;;137641;1273;22404;-80
2023/04/15 12:38:12;;;;;;;;;;;;;;;;;;137666;1273;22820;-81
2023/04/15 12:41:14;;;;;;;;;;;;;;;;;;137641;1273;22280;-81
2023/04/15 12:44:15;;;;;;;;;;;;;;;;;;137680;1273;22671;-82
2023/04/15 12:47:16;;;;;;;;;;;;;;;;;;137709;1273;22190;-81
2023/04/15 12:50:17;;;;;;;;;;;;;;;;;;137708;1273;22190;-82
2023/04/15 12:53:18;;;;;;;;;;;;;;;;;;137647;1273;22286;-81
2023/04/15 12:56:19;;;;;;;;;;;;;;;;;;137717;1273;22271;-81
2023/04/15 12:59:20;;;;;;;;;;;;;;;;;;137658;1273;22203;-80
2023/04/15 13:02:24;;;;;;;;;;;;;;;;;;137699;1273;22210;-81
2023/04/15 13:05:25;;;;;;;;;;;;;;;;;;137646;1273;22211;-82
2023/04/15 13:08:26;;;;;;;;;;;;;;;;;;137614;1273;22348;-81
2023/04/15 13:11:29;;;;;;;;;;;;;;;;;;137659;1273;22275;-81
2023/04/15 13:14:30;;;;;;;;;;;;;;;;;;137678;1273;22273;-81
2023/04/15 13:17:31;;;;;;;;;;;;;;;;;;137709;1273;22281;-80
2023/04/15 13:20:32;;;;;;;;;;;;;;;;;;137730;1273;22177;-80
2023/04/15 13:23:33;;;;;;;;;;;;;;;;;;137625;1273;22295;-81
2023/04/15 13:26:35;;;;;;;;;;;;;;;;;;137628;1273;22169;-80
2023/04/15 13:29:36;;;;;;;;;;;;;;;;;;137663;1273;22260;-80
2023/04/15 13:32:37;;;;;;;;;;;;;;;;;;137654;1273;22268;-80
2023/04/15 13:35:38;;;;;;;;;;;;;;;;;;137666;1271;22973;-80
2023/04/15 13:38:39;;;;;;;;;;;;;;;;;;137688;1273;22630;-80
2023/04/15 13:41:40;;;;;;;;;;;;;;;;;;137720;1273;22276;-81
2023/04/15 13:44:41;;;;;;;;;;;;;;;;;;137669;1273;22540;-80
2023/04/15 13:47:42;;;;;;;;;;;;;;;;;;137678;1273;22261;-80
2023/04/15 13:50:44;;;;;;;;;;;;;;;;;;137691;1273;22292;-80
2023/04/15 13:53:45;;;;;;;;;;;;;;;;;;137669;1273;22270;-80
2023/04/15 13:56:46;;;;;;;;;;;;;;;;;;137651;1273;22164;-80
2023/04/15 13:59:47;;;;;;;;;;;;;;;;;;137721;1273;22201;-80
2023/04/15 14:02:48;;;;;;;;;;;;;;;;;;137681;1273;22712;-80
2023/04/15 14:05:54;;;;;;;;;;;;;;;;;;137686;1273;22425;-80
2023/04/15 14:08:55;;;;;;;;;;;;;;;;;;137659;1273;22241;-81
2023/04/15 14:11:57;;;;;;;;;;;;;;;;;;137655;1273;22314;-79
2023/04/15 14:14:58;;;;;;;;;;;;;;;;;;137664;1273;22757;-79
2023/04/15 14:18:02;;;;;;;;;;;;;;;;;;137658;1273;22307;-80
2023/04/15 14:21:03;;;;;;;;;;;;;;;;;;137654;1273;22371;-80
2023/04/15 14:24:04;;;;;;;;;;;;;;;;;;137670;1273;22771;-80
2023/04/15 14:27:05;;;;;;;;;;;;;;;;;;137630;1273;22211;-81
2023/04/15 14:30:06;;;;;;;;;;;;;;;;;;137676;1269;22198;-79
2023/04/15 14:33:07;;;;;;;;;;;;;;;;;;137670;1273;22261;-80
2023/04/15 14:36:08;;;;;;;;;;;;;;;;;;137661;1273;22379;-80
2023/04/15 14:39:09;;;;;;;;;;;;;;;;;;137626;1273;22205;-80
2023/04/15 14:42:11;;;;;;;;;;;;;;;;;;137655;1273;22266;-80
2023/04/15 14:45:15;;;;;;;;;;;;;;;;;;137619;1273;22318;-80
2023/04/15 14:48:16;;;;;;;;;;;;;;;;;;137643;1273;22300;-80
2023/04/15 14:51:17;;;;;;;;;;;;;;;;;;137663;1273;22738;-79
2023/04/15 14:54:18;;;;;;;;;;;;;;;;;;137660;1273;22202;-80
2023/04/15 14:57:19;;;;;;;;;;;;;;;;;;137649;1273;22238;-81
2023/04/15 15:00:20;;;;;;;;;;;;;;;;;;137646;1273;22276;-80
2023/04/15 15:03:21;;;;;;;;;;;;;;;;;;137659;1273;22185;-79
2023/04/15 15:06:22;;;;;;;;;;;;;;;;;;137627;1274;22356;-80
2023/04/15 15:09:23;;;;;;;;;;;;;;;;;;137656;1273;22212;-80
2023/04/15 15:12:25;;;;;;;;;;;;;;;;;;137639;1273;22198;-80
2023/04/15 15:15:26;;;;;;;;;;;;;;;;;;137599;1273;22259;-80
2023/04/15 15:18:28;;;;;;;;;;;;;;;;;;137521;1273;22420;-79
2023/04/15 15:21:30;;;;;;;;;;;;;;;;;;137594;1273;22302;-80
2023/04/15 15:24:31;;;;;;;;;;;;;;;;;;137644;1273;22250;-81
2023/04/15 15:27:32;;;;;;;;;;;;;;;;;;137619;1272;22210;-79
2023/04/15 15:30:33;;;;;;;;;;;;;;;;;;137663;1273;22686;-79
2023/04/15 15:33:34;;;;;;;;;;;;;;;;;;137639;1273;22265;-80
2023/04/15 15:36:35;;;;;;;;;;;;;;;;;;137675;1273;22838;-80
2023/04/15 15:39:36;;;;;;;;;;;;;;;;;;137658;1273;22267;-81
2023/04/15 15:42:37;;;;;;;;;;;;;;;;;;137632;1273;22721;-81
2023/04/15 15:45:39;;;;;;;;;;;;;;;;;;137641;1273;22310;-81
2023/04/15 15:48:40;;;;;;;;;;;;;;;;;;137658;1273;22260;-80
2023/04/15 15:51:41;;;;;;;;;;;;;;;;;;137664;1273;22290;-80
2023/04/15 15:54:42;;;;;;;;;;;;;;;;;;137665;1273;22215;-81
2023/04/15 15:57:43;;;;;;;;;;;;;;;;;;137671;1273;22173;-81
2023/04/15 16:00:44;;;;;;;;;;;;;;;;;;137647;1273;22640;-81
2023/04/15 16:03:45;;;;;;;;;;;;;;;;;;137638;1273;22140;-81
2023/04/15 16:06:47;;;;;;;;;;;;;;;;;;137605;1273;22978;-81
2023/04/15 16:09:48;;;;;;;;;;;;;;;;;;137635;1273;22437;-79
2023/04/15 16:12:49;;;;;;;;;;;;;;;;;;137613;1273;22110;-81
2023/04/15 16:15:50;;;;;;;;;;;;;;;;;;137641;1273;22197;-81
2023/04/15 16:18:51;;;;;;;;;;;;;;;;;;137671;1273;22170;-81
2023/04/15 16:21:52;;;;;;;;;;;;;;;;;;137659;1273;22401;-80
2023/04/15 16:24:53;;;;;;;;;;;;;;;;;;137618;1273;22218;-81
2023/04/15 16:27:54;;;;;;;;;;;;;;;;;;137642;1273;22343;-80
2023/04/15 16:30:55;;;;;;;;;;;;;;;;;;137628;1273;22270;-80
2023/04/15 16:33:57;;;;;;;;;;;;;;;;;;137579;1273;22353;-80
2023/04/15 16:36:58;;;;;;;;;;;;;;;;;;137665;1270;22388;-81
2023/04/15 16:39:59;;;;;;;;;;;;;;;;;;137641;1273;22407;-80
2023/04/15 16:43:00;;;;;;;;;;;;;;;;;;137631;1273;22247;-81
2023/04/15 16:46:01;;;;;;;;;;;;;;;;;;137657;1273;22379;-80
2023/04/15 16:49:02;;;;;;;;;;;;;;;;;;137653;1271;22223;-80
2023/04/15 16:52:03;;;;;;;;;;;;;;;;;;137638;1273;22269;-81
2023/04/15 16:55:04;;;;;;;;;;;;;;;;;;137641;1273;22245;-80
2023/04/15 16:58:05;;;;;;;;;;;;;;;;;;137673;1273;22308;-80
2023/04/15 17:01:07;;;;;;;;;;;;;;;;;;137660;1273;22306;-81
2023/04/15 17:04:08;;;;;;;;;;;;;;;;;;137576;1273;22292;-83
2023/04/15 17:07:09;;;;;;;;;;;;;;;;;;137605;1273;22379;-82
2023/04/15 17:10:12;;;;;;;;;;;;;;;;;;137620;1269;22114;-82
2023/04/15 17:13:13;;;;;;;;;;;;;;;;;;137583;1273;22293;-81
2023/04/15 17:16:14;;;;;;;;;;;;;;;;;;137580;1273;22291;-81
2023/04/15 17:19:15;;;;;;;;;;;;;;;;;;137588;1273;22192;-81
2023/04/15 17:22:16;;;;;;;;;;;;;;;;;;137640;1273;22181;-81
2023/04/15 17:25:18;;;;;;;;;;;;;;;;;;137626;1273;22298;-80
2023/04/15 17:28:19;;;;;;;;;;;;;;;;;;137685;1273;22174;-81
2023/04/15 17:31:20;;;;;;;;;;;;;;;;;;137636;1273;22195;-81
2023/04/15 17:34:21;;;;;;;;;;;;;;;;;;137653;1273;22322;-81
2023/04/15 17:37:22;;;;;;;;;;;;;;;;;;137645;1273;22428;-81
2023/04/15 17:40:23;;;;;;;;;;;;;;;;;;137619;1273;22173;-80
2023/04/15 17:43:24;;;;;;;;;;;;;;;;;;137622;1273;22272;-80
2023/04/15 17:46:25;;;;;;;;;;;;;;;;;;137633;1273;22356;-80
2023/04/15 17:49:26;;;;;;;;;;;;;;;;;;137618;1273;22339;-80
2023/04/15 17:52:27;;;;;;;;;;;;;;;;;;137650;1272;22730;-80
2023/04/15 17:55:28;;;;;;;;;;;;;;;;;;137612;1273;22277;-81
2023/04/15 17:58:29;;;;;;;;;;;;;;;;;;137631;1273;22289;-80
2023/04/15 18:01:30;;;;;;;;;;;;;;;;;;137640;1273;22267;-80
2023/04/15 18:04:31;;;;;;;;;;;;;;;;;;137563;1273;22253;-80
2023/04/15 18:07:32;;;;;;;;;;;;;;;;;;137596;1273;22871;-80
2023/04/15 18:10:33;;;;;;;;;;;;;;;;;;137602;1272;22751;-81
2023/04/15 18:13:34;;;;;;;;;;;;;;;;;;137630;1273;22763;-81
2023/04/15 18:16:35;;;;;;;;;;;;;;;;;;137601;1273;22240;-81
2023/04/15 18:19:36;;;;;;;;;;;;;;;;;;137577;1273;22192;-82
2023/04/15 18:22:38;;;;;;;;;;;;;;;;;;137599;1273;22743;-80
2023/04/15 18:25:42;;;;;;;;;;;;;;;;;;137610;1273;22646;-80
2023/04/15 18:28:43;;;;;;;;;;;;;;;;;;137647;1273;22285;-81
2023/04/15 18:31:44;;;;;;;;;;;;;;;;;;137613;1273;22647;-80
2023/04/15 18:34:45;;;;;;;;;;;;;;;;;;137611;1273;22821;-80
2023/04/15 18:37:46;;;;;;;;;;;;;;;;;;137619;1273;22422;-80
2023/04/15 18:40:47;;;;;;;;;;;;;;;;;;137617;1273;22173;-80
2023/04/15 18:43:48;;;;;;;;;;;;;;;;;;137663;1273;22724;-80
2023/04/15 18:46:49;;;;;;;;;;;;;;;;;;137593;1273;22199;-80
2023/04/15 18:49:50;;;;;;;;;;;;;;;;;;137613;1273;22200;-80
2023/04/15 18:52:51;;;;;;;;;;;;;;;;;;137598;1273;22284;-80
2023/04/15 18:55:52;;;;;;;;;;;;;;;;;;137605;1273;22339;-80
2023/04/15 18:58:53;;;;;;;;;;;;;;;;;;137595;1273;22192;-81
2023/04/15 19:01:54;;;;;;;;;;;;;;;;;;137601;1273;22282;-80
2023/04/15 19:04:55;;;;;;;;;;;;;;;;;;137562;1273;22279;-81
2023/04/15 19:07:56;;;;;;;;;;;;;;;;;;137622;1273;22818;-81
2023/04/15 19:10:57;;;;;;;;;;;;;;;;;;137454;1273;172978;-80
2023/04/15 19:13:58;;;;;;;;;;;;;;;;;;137589;1273;22219;-80
2023/04/15 19:16:59;;;;;;;;;;;;;;;;;;137631;1273;22286;-80
2023/04/15 19:20:00;;;;;;;;;;;;;;;;;;137592;1273;22306;-81
2023/04/15 19:23:01;;;;;;;;;;;;;;;;;;137593;1273;22192;-81
2023/04/15 19:26:02;;;;;;;;;;;;;;;;;;137608;1273;22331;-82
2023/04/15 19:29:03;;;;;;;;;;;;;;;;;;137596;1273;22651;-81
2023/04/15 19:32:04;;;;;;;;;;;;;;;;;;137566;1273;22267;-81
2023/04/15 19:35:05;;;;;;;;;;;;;;;;;;137581;1273;22532;-80
2023/04/15 19:38:06;;;;;;;;;;;;;;;;;;137588;1273;22343;-80
2023/04/15 19:41:09;;;;;;;;;;;;;;;;;;137605;1273;22236;-80
2023/04/15 19:44:11;;;;;;;;;;;;;;;;;;137571;1273;22276;-81
2023/04/15 19:47:12;;;;;;;;;;;;;;;;;;137565;1273;22254;-81
2023/04/15 19:50:15;;;;;;;;;;;;;;;;;;137537;1273;22292;-81
2023/04/15 19:53:16;;;;;;;;;;;;;;;;;;137581;1273;22259;-81
2023/04/15 19:56:17;;;;;;;;;;;;;;;;;;137536;1273;22281;-81
2023/04/15 19:59:18;;;;;;;;;;;;;;;;;;137550;1273;22670;-81
2023/04/15 20:02:19;;;;;;;;;;;;;;;;;;137580;1273;22302;-80
2023/04/15 20:05:20;;;;;;;;;;;;;;;;;;137598;1273;22215;-80
2023/04/15 20:08:24;;;;;;;;;;;;;;;;;;137574;1273;22616;-80
2023/04/15 20:11:27;;;;;;;;;;;;;;;;;;137585;1273;22271;-81
2023/04/15 20:14:28;;;;;;;;;;;;;;;;;;137559;1273;22653;-81
2023/04/15 20:17:30;;;;;;;;;;;;;;;;;;137583;1273;22256;-81